< < Back
Terminal Aerodrome Forecast


Current Version              Previous Versions:   1  2  3  4  5  6  7  8  9  

Terminal Aerodrome Forecast

607
FTUS44 KBMX 280000 RRA
TAFANB
TAF
KANB 280007Z 2800/2824 02004KT P6SM SCT250
     FM280900 05004KT P6SM OVC120=

Latest METAR

101
SAUS70 KWBC 010000 RRQ
MTRANB
METAR KANB 282353Z AUTO 09005KT 10SM CLR 13/01 A3042 RMK AO2 SLP308
T01330006 10167 20128 51007


USA.gov is the U.S. government's official web portal to all federal, state and local government web resources and services.